sensor_id;sensor_type;location;lat;lon;timestamp;P1;durP1;ratioP1;P2;durP2;ratioP2
14933;SDS011;7560;51.364;12.384;2023-07-13T00:03:57;3.03;;;1.80;;
14933;SDS011;7560;51.364;12.384;2023-07-13T00:08:59;1.67;;;1.58;;
14933;SDS011;7560;51.364;12.384;2023-07-13T00:14:01;2.55;;;1.60;;
14933;SDS011;7560;51.364;12.384;2023-07-13T00:19:04;3.85;;;1.85;;
14933;SDS011;7560;51.364;12.384;2023-07-13T00:24:07;4.03;;;2.63;;
14933;SDS011;7560;51.364;12.384;2023-07-13T00:29:14;3.35;;;2.20;;
14933;SDS011;7560;51.364;12.384;2023-07-13T00:34:17;6.70;;;2.67;;
14933;SDS011;7560;51.364;12.384;2023-07-13T00:39:19;2.75;;;2.20;;
14933;SDS011;7560;51.364;12.384;2023-07-13T00:44:22;3.50;;;2.10;;
14933;SDS011;7560;51.364;12.384;2023-07-13T00:49:25;4.30;;;2.28;;
14933;SDS011;7560;51.364;12.384;2023-07-13T00:54:35;2.00;;;1.55;;
14933;SDS011;7560;51.364;12.384;2023-07-13T00:59:42;4.50;;;1.85;;
14933;SDS011;7560;51.364;12.384;2023-07-13T01:04:47;3.20;;;1.70;;
14933;SDS011;7560;51.364;12.384;2023-07-13T01:09:49;3.55;;;1.30;;
14933;SDS011;7560;51.364;12.384;2023-07-13T01:14:56;3.13;;;1.60;;
14933;SDS011;7560;51.364;12.384;2023-07-13T01:20:02;3.88;;;1.60;;
14933;SDS011;7560;51.364;12.384;2023-07-13T01:25:06;4.60;;;1.63;;
14933;SDS011;7560;51.364;12.384;2023-07-13T01:30:09;3.35;;;1.50;;
14933;SDS011;7560;51.364;12.384;2023-07-13T01:35:11;2.47;;;1.67;;
14933;SDS011;7560;51.364;12.384;2023-07-13T01:40:13;1.70;;;1.42;;
14933;SDS011;7560;51.364;12.384;2023-07-13T01:45:15;3.08;;;1.65;;
14933;SDS011;7560;51.364;12.384;2023-07-13T01:50:17;5.35;;;1.80;;
14933;SDS011;7560;51.364;12.384;2023-07-13T01:55:20;2.80;;;1.50;;
14933;SDS011;7560;51.364;12.384;2023-07-13T02:00:22;5.20;;;1.58;;
14933;SDS011;7560;51.364;12.384;2023-07-13T02:05:24;2.67;;;1.60;;
14933;SDS011;7560;51.364;12.384;2023-07-13T02:10:26;2.05;;;1.52;;
14933;SDS011;7560;51.364;12.384;2023-07-13T02:15:29;2.42;;;1.85;;
14933;SDS011;7560;51.364;12.384;2023-07-13T02:20:31;3.20;;;1.70;;
14933;SDS011;7560;51.364;12.384;2023-07-13T02:25:33;2.88;;;1.70;;
14933;SDS011;7560;51.364;12.384;2023-07-13T02:30:35;4.45;;;1.58;;
14933;SDS011;7560;51.364;12.384;2023-07-13T02:35:37;3.90;;;1.85;;
14933;SDS011;7560;51.364;12.384;2023-07-13T02:40:38;4.15;;;1.60;;
14933;SDS011;7560;51.364;12.384;2023-07-13T02:45:43;3.42;;;1.88;;
14933;SDS011;7560;51.364;12.384;2023-07-13T02:50:45;2.47;;;1.90;;
14933;SDS011;7560;51.364;12.384;2023-07-13T02:55:47;3.78;;;2.13;;
14933;SDS011;7560;51.364;12.384;2023-07-13T03:00:49;3.55;;;2.45;;
14933;SDS011;7560;51.364;12.384;2023-07-13T03:05:57;4.22;;;1.98;;
14933;SDS011;7560;51.364;12.384;2023-07-13T03:11:02;5.97;;;2.33;;
14933;SDS011;7560;51.364;12.384;2023-07-13T03:16:06;3.47;;;2.20;;
14933;SDS011;7560;51.364;12.384;2023-07-13T03:21:09;3.88;;;2.17;;
14933;SDS011;7560;51.364;12.384;2023-07-13T03:26:13;5.55;;;2.58;;
14933;SDS011;7560;51.364;12.384;2023-07-13T03:31:18;3.38;;;1.95;;
14933;SDS011;7560;51.364;12.384;2023-07-13T03:36:23;3.15;;;2.22;;
14933;SDS011;7560;51.364;12.384;2023-07-13T03:41:27;2.58;;;2.25;;
14933;SDS011;7560;51.364;12.384;2023-07-13T03:46:28;4.25;;;2.50;;
14933;SDS011;7560;51.364;12.384;2023-07-13T03:51:31;3.72;;;2.35;;
14933;SDS011;7560;51.364;12.384;2023-07-13T03:56:33;2.83;;;2.53;;
14933;SDS011;7560;51.364;12.384;2023-07-13T04:01:35;4.70;;;2.75;;
14933;SDS011;7560;51.364;12.384;2023-07-13T04:06:37;4.25;;;2.70;;
14933;SDS011;7560;51.364;12.384;2023-07-13T04:11:39;5.20;;;3.00;;
14933;SDS011;7560;51.364;12.384;2023-07-13T04:16:41;5.65;;;2.92;;
14933;SDS011;7560;51.364;12.384;2023-07-13T04:21:43;4.15;;;2.88;;
14933;SDS011;7560;51.364;12.384;2023-07-13T04:26:44;4.80;;;2.50;;
14933;SDS011;7560;51.364;12.384;2023-07-13T04:31:46;4.40;;;3.05;;
14933;SDS011;7560;51.364;12.384;2023-07-13T04:36:48;6.50;;;2.78;;
14933;SDS011;7560;51.364;12.384;2023-07-13T04:41:51;3.65;;;2.55;;
14933;SDS011;7560;51.364;12.384;2023-07-13T04:46:52;4.85;;;2.88;;
14933;SDS011;7560;51.364;12.384;2023-07-13T04:51:54;3.70;;;2.70;;
14933;SDS011;7560;51.364;12.384;2023-07-13T04:56:56;4.22;;;2.50;;
14933;SDS011;7560;51.364;12.384;2023-07-13T05:01:58;5.43;;;2.83;;
14933;SDS011;7560;51.364;12.384;2023-07-13T05:06:59;4.90;;;3.08;;
14933;SDS011;7560;51.364;12.384;2023-07-13T05:12:01;4.18;;;2.78;;
14933;SDS011;7560;51.364;12.384;2023-07-13T05:17:03;4.18;;;2.85;;
14933;SDS011;7560;51.364;12.384;2023-07-13T05:22:05;5.38;;;2.55;;
14933;SDS011;7560;51.364;12.384;2023-07-13T05:27:07;5.15;;;2.70;;
14933;SDS011;7560;51.364;12.384;2023-07-13T05:32:09;4.63;;;2.22;;
14933;SDS011;7560;51.364;12.384;2023-07-13T05:37:11;4.50;;;2.80;;
14933;SDS011;7560;51.364;12.384;2023-07-13T05:42:12;3.13;;;2.30;;
14933;SDS011;7560;51.364;12.384;2023-07-13T05:47:15;3.13;;;2.15;;
14933;SDS011;7560;51.364;12.384;2023-07-13T05:52:16;4.38;;;2.20;;
14933;SDS011;7560;51.364;12.384;2023-07-13T05:57:18;4.38;;;2.20;;
14933;SDS011;7560;51.364;12.384;2023-07-13T06:02:20;3.10;;;1.92;;
14933;SDS011;7560;51.364;12.384;2023-07-13T06:07:22;3.38;;;2.10;;
14933;SDS011;7560;51.364;12.384;2023-07-13T06:12:24;4.80;;;2.15;;
14933;SDS011;7560;51.364;12.384;2023-07-13T06:17:26;6.88;;;2.55;;
14933;SDS011;7560;51.364;12.384;2023-07-13T06:22:27;6.22;;;2.22;;
14933;SDS011;7560;51.364;12.384;2023-07-13T06:27:29;3.60;;;2.33;;
14933;SDS011;7560;51.364;12.384;2023-07-13T06:32:31;4.20;;;2.35;;
14933;SDS011;7560;51.364;12.384;2023-07-13T06:37:33;5.00;;;2.45;;
14933;SDS011;7560;51.364;12.384;2023-07-13T06:42:35;3.70;;;2.40;;
14933;SDS011;7560;51.364;12.384;2023-07-13T06:47:37;5.45;;;2.20;;
14933;SDS011;7560;51.364;12.384;2023-07-13T06:52:38;3.10;;;2.00;;
14933;SDS011;7560;51.364;12.384;2023-07-13T06:57:40;5.57;;;1.80;;
14933;SDS011;7560;51.364;12.384;2023-07-13T07:02:42;3.85;;;2.00;;
14933;SDS011;7560;51.364;12.384;2023-07-13T07:07:44;4.15;;;2.10;;
14933;SDS011;7560;51.364;12.384;2023-07-13T07:12:46;4.97;;;1.80;;
14933;SDS011;7560;51.364;12.384;2023-07-13T07:17:48;5.15;;;2.50;;
14933;SDS011;7560;51.364;12.384;2023-07-13T07:22:49;4.53;;;2.25;;
14933;SDS011;7560;51.364;12.384;2023-07-13T07:27:51;3.78;;;2.08;;
14933;SDS011;7560;51.364;12.384;2023-07-13T07:32:56;4.45;;;2.30;;
14933;SDS011;7560;51.364;12.384;2023-07-13T07:37:58;5.15;;;2.03;;
14933;SDS011;7560;51.364;12.384;2023-07-13T07:43:00;2.55;;;1.88;;
14933;SDS011;7560;51.364;12.384;2023-07-13T07:48:01;3.72;;;2.00;;
14933;SDS011;7560;51.364;12.384;2023-07-13T07:53:03;3.83;;;1.63;;
14933;SDS011;7560;51.364;12.384;2023-07-13T07:58:08;2.45;;;1.60;;
14933;SDS011;7560;51.364;12.384;2023-07-13T08:03:30;3.70;;;1.67;;
14933;SDS011;7560;51.364;12.384;2023-07-13T08:08:52;4.43;;;1.85;;
14933;SDS011;7560;51.364;12.384;2023-07-13T08:13:53;3.97;;;1.70;;
14933;SDS011;7560;51.364;12.384;2023-07-13T08:18:56;3.00;;;1.45;;
14933;SDS011;7560;51.364;12.384;2023-07-13T08:23:58;4.00;;;1.30;;
14933;SDS011;7560;51.364;12.384;2023-07-13T08:28:59;2.05;;;1.60;;
14933;SDS011;7560;51.364;12.384;2023-07-13T08:34:01;2.58;;;1.25;;
14933;SDS011;7560;51.364;12.384;2023-07-13T08:39:03;3.28;;;1.50;;
14933;SDS011;7560;51.364;12.384;2023-07-13T08:44:06;3.78;;;1.60;;
14933;SDS011;7560;51.364;12.384;2023-07-13T08:49:26;4.60;;;1.65;;
14933;SDS011;7560;51.364;12.384;2023-07-13T08:54:38;3.55;;;1.60;;
14933;SDS011;7560;51.364;12.384;2023-07-13T08:59:44;7.25;;;1.45;;
14933;SDS011;7560;51.364;12.384;2023-07-13T09:04:50;3.20;;;1.55;;
14933;SDS011;7560;51.364;12.384;2023-07-13T09:10:27;3.67;;;1.40;;
14933;SDS011;7560;51.364;12.384;2023-07-13T09:15:50;2.90;;;1.42;;
14933;SDS011;7560;51.364;12.384;2023-07-13T09:20:54;3.63;;;1.45;;
14933;SDS011;7560;51.364;12.384;2023-07-13T09:26:04;2.60;;;1.50;;
14933;SDS011;7560;51.364;12.384;2023-07-13T09:31:16;5.57;;;1.58;;
14933;SDS011;7560;51.364;12.384;2023-07-13T09:36:24;4.35;;;1.70;;
14933;SDS011;7560;51.364;12.384;2023-07-13T09:41:47;4.68;;;1.75;;
14933;SDS011;7560;51.364;12.384;2023-07-13T09:46:57;2.78;;;1.42;;
14933;SDS011;7560;51.364;12.384;2023-07-13T09:52:03;3.65;;;1.40;;
14933;SDS011;7560;51.364;12.384;2023-07-13T09:57:14;4.55;;;1.60;;
14933;SDS011;7560;51.364;12.384;2023-07-13T10:02:35;4.00;;;1.50;;
14933;SDS011;7560;51.364;12.384;2023-07-13T10:07:38;3.55;;;1.55;;
14933;SDS011;7560;51.364;12.384;2023-07-13T10:12:45;2.67;;;1.30;;
14933;SDS011;7560;51.364;12.384;2023-07-13T10:17:49;2.53;;;1.35;;
14933;SDS011;7560;51.364;12.384;2023-07-13T10:22:54;2.42;;;1.42;;
14933;SDS011;7560;51.364;12.384;2023-07-13T10:33:36;3.45;;;1.65;;
14933;SDS011;7560;51.364;12.384;2023-07-13T10:38:38;3.60;;;1.58;;
14933;SDS011;7560;51.364;12.384;2023-07-13T10:43:44;5.97;;;2.00;;
14933;SDS011;7560;51.364;12.384;2023-07-13T10:48:49;4.22;;;1.80;;
14933;SDS011;7560;51.364;12.384;2023-07-13T10:54:37;2.70;;;1.48;;
14933;SDS011;7560;51.364;12.384;2023-07-13T10:59:24;2.33;;;1.50;;
14933;SDS011;7560;51.364;12.384;2023-07-13T11:04:28;2.25;;;1.40;;
14933;SDS011;7560;51.364;12.384;2023-07-13T11:09:40;3.25;;;1.35;;
14933;SDS011;7560;51.364;12.384;2023-07-13T11:20:41;2.58;;;1.25;;
14933;SDS011;7560;51.364;12.384;2023-07-13T11:25:24;3.67;;;1.10;;
14933;SDS011;7560;51.364;12.384;2023-07-13T11:30:35;3.85;;;1.20;;
14933;SDS011;7560;51.364;12.384;2023-07-13T11:35:57;1.80;;;0.90;;
14933;SDS011;7560;51.364;12.384;2023-07-13T11:41:04;3.65;;;1.10;;
14933;SDS011;7560;51.364;12.384;2023-07-13T11:46:23;2.05;;;0.98;;
14933;SDS011;7560;51.364;12.384;2023-07-13T11:51:28;2.22;;;1.30;;
14933;SDS011;7560;51.364;12.384;2023-07-13T11:56:33;2.45;;;0.80;;
14933;SDS011;7560;51.364;12.384;2023-07-13T12:01:35;3.30;;;1.50;;
14933;SDS011;7560;51.364;12.384;2023-07-13T12:06:44;1.88;;;1.10;;
14933;SDS011;7560;51.364;12.384;2023-07-13T12:11:47;1.98;;;0.73;;
14933;SDS011;7560;51.364;12.384;2023-07-13T12:16:49;2.00;;;1.25;;
14933;SDS011;7560;51.364;12.384;2023-07-13T12:21:52;2.00;;;1.00;;
14933;SDS011;7560;51.364;12.384;2023-07-13T12:27:03;1.45;;;1.08;;
14933;SDS011;7560;51.364;12.384;2023-07-13T12:32:08;3.33;;;1.30;;
14933;SDS011;7560;51.364;12.384;2023-07-13T12:37:11;3.13;;;1.20;;
14933;SDS011;7560;51.364;12.384;2023-07-13T12:42:25;4.93;;;1.15;;
14933;SDS011;7560;51.364;12.384;2023-07-13T12:47:30;3.08;;;1.02;;
14933;SDS011;7560;51.364;12.384;2023-07-13T12:52:32;5.05;;;0.90;;
14933;SDS011;7560;51.364;12.384;2023-07-13T12:57:39;1.20;;;0.70;;
14933;SDS011;7560;51.364;12.384;2023-07-13T13:02:44;1.83;;;0.80;;
14933;SDS011;7560;51.364;12.384;2023-07-13T13:07:46;0.70;;;0.70;;
14933;SDS011;7560;51.364;12.384;2023-07-13T13:12:48;1.80;;;0.75;;
14933;SDS011;7560;51.364;12.384;2023-07-13T13:17:51;1.48;;;0.80;;
14933;SDS011;7560;51.364;12.384;2023-07-13T13:22:53;2.70;;;0.90;;
14933;SDS011;7560;51.364;12.384;2023-07-13T13:27:55;1.85;;;0.80;;
14933;SDS011;7560;51.364;12.384;2023-07-13T13:32:57;1.67;;;0.73;;
14933;SDS011;7560;51.364;12.384;2023-07-13T13:37:59;1.85;;;0.73;;
14933;SDS011;7560;51.364;12.384;2023-07-13T13:43:01;3.50;;;1.00;;
14933;SDS011;7560;51.364;12.384;2023-07-13T13:48:03;2.47;;;0.80;;
14933;SDS011;7560;51.364;12.384;2023-07-13T13:53:07;1.63;;;0.88;;
14933;SDS011;7560;51.364;12.384;2023-07-13T13:58:14;2.58;;;0.80;;
14933;SDS011;7560;51.364;12.384;2023-07-13T14:03:17;1.77;;;1.00;;
14933;SDS011;7560;51.364;12.384;2023-07-13T14:08:20;2.75;;;0.88;;
14933;SDS011;7560;51.364;12.384;2023-07-13T14:13:23;1.95;;;0.73;;
14933;SDS011;7560;51.364;12.384;2023-07-13T14:18:32;2.60;;;1.08;;
14933;SDS011;7560;51.364;12.384;2023-07-13T14:23:34;3.45;;;0.68;;
14933;SDS011;7560;51.364;12.384;2023-07-13T14:28:41;0.93;;;0.80;;
14933;SDS011;7560;51.364;12.384;2023-07-13T14:33:46;3.33;;;0.90;;
14933;SDS011;7560;51.364;12.384;2023-07-13T14:38:49;2.08;;;0.80;;
14933;SDS011;7560;51.364;12.384;2023-07-13T14:43:50;2.65;;;0.75;;
14933;SDS011;7560;51.364;12.384;2023-07-13T14:48:53;1.67;;;0.80;;
14933;SDS011;7560;51.364;12.384;2023-07-13T14:54:05;1.85;;;0.85;;
14933;SDS011;7560;51.364;12.384;2023-07-13T14:59:10;2.10;;;0.98;;
14933;SDS011;7560;51.364;12.384;2023-07-13T15:04:11;2.67;;;0.90;;
14933;SDS011;7560;51.364;12.384;2023-07-13T15:09:14;2.42;;;0.80;;
14933;SDS011;7560;51.364;12.384;2023-07-13T15:14:15;1.95;;;1.02;;
14933;SDS011;7560;51.364;12.384;2023-07-13T15:19:17;1.05;;;0.80;;
14933;SDS011;7560;51.364;12.384;2023-07-13T15:24:20;1.90;;;1.00;;
14933;SDS011;7560;51.364;12.384;2023-07-13T15:29:22;2.40;;;1.00;;
14933;SDS011;7560;51.364;12.384;2023-07-13T15:34:24;1.08;;;0.98;;
14933;SDS011;7560;51.364;12.384;2023-07-13T15:39:27;2.63;;;0.85;;
14933;SDS011;7560;51.364;12.384;2023-07-13T15:44:32;1.55;;;0.90;;
14933;SDS011;7560;51.364;12.384;2023-07-13T15:49:34;1.88;;;1.00;;
14933;SDS011;7560;51.364;12.384;2023-07-13T15:54:36;2.92;;;0.90;;
14933;SDS011;7560;51.364;12.384;2023-07-13T15:59:39;2.17;;;0.98;;
14933;SDS011;7560;51.364;12.384;2023-07-13T16:04:42;1.30;;;1.10;;
14933;SDS011;7560;51.364;12.384;2023-07-13T16:09:45;1.55;;;1.20;;
14933;SDS011;7560;51.364;12.384;2023-07-13T16:14:48;1.52;;;0.90;;
14933;SDS011;7560;51.364;12.384;2023-07-13T16:19:50;2.17;;;0.90;;
14933;SDS011;7560;51.364;12.384;2023-07-13T16:24:52;0.82;;;0.82;;
14933;SDS011;7560;51.364;12.384;2023-07-13T16:29:57;2.78;;;1.10;;
14933;SDS011;7560;51.364;12.384;2023-07-13T16:34:59;1.55;;;0.82;;
14933;SDS011;7560;51.364;12.384;2023-07-13T16:40:01;3.05;;;1.27;;
14933;SDS011;7560;51.364;12.384;2023-07-13T16:45:11;3.45;;;1.15;;
14933;SDS011;7560;51.364;12.384;2023-07-13T16:50:14;0.93;;;0.80;;
14933;SDS011;7560;51.364;12.384;2023-07-13T16:55:18;3.92;;;1.10;;
14933;SDS011;7560;51.364;12.384;2023-07-13T17:00:30;2.55;;;1.30;;
14933;SDS011;7560;51.364;12.384;2023-07-13T17:10:45;2.22;;;1.05;;
14933;SDS011;7560;51.364;12.384;2023-07-13T17:15:48;2.40;;;1.50;;
14933;SDS011;7560;51.364;12.384;2023-07-13T17:21:00;2.95;;;1.80;;
14933;SDS011;7560;51.364;12.384;2023-07-13T17:26:03;1.45;;;0.98;;
14933;SDS011;7560;51.364;12.384;2023-07-13T17:31:05;5.63;;;2.22;;
14933;SDS011;7560;51.364;12.384;2023-07-13T17:36:10;10.55;;;3.92;;
14933;SDS011;7560;51.364;12.384;2023-07-13T17:41:14;3.63;;;0.90;;
14933;SDS011;7560;51.364;12.384;2023-07-13T17:46:17;3.60;;;1.25;;
14933;SDS011;7560;51.364;12.384;2023-07-13T17:51:23;5.03;;;1.63;;
14933;SDS011;7560;51.364;12.384;2023-07-13T17:56:28;2.78;;;1.30;;
14933;SDS011;7560;51.364;12.384;2023-07-13T18:01:34;3.72;;;1.80;;
14933;SDS011;7560;51.364;12.384;2023-07-13T18:06:40;4.70;;;2.88;;
14933;SDS011;7560;51.364;12.384;2023-07-13T18:11:45;4.25;;;2.70;;
14933;SDS011;7560;51.364;12.384;2023-07-13T18:16:52;4.90;;;2.85;;
14933;SDS011;7560;51.364;12.384;2023-07-13T18:21:56;6.20;;;4.20;;
14933;SDS011;7560;51.364;12.384;2023-07-13T18:26:57;3.33;;;2.83;;
14933;SDS011;7560;51.364;12.384;2023-07-13T18:31:59;4.03;;;2.03;;
14933;SDS011;7560;51.364;12.384;2023-07-13T18:37:09;1.80;;;1.25;;
14933;SDS011;7560;51.364;12.384;2023-07-13T18:42:20;4.03;;;1.30;;
14933;SDS011;7560;51.364;12.384;2023-07-13T18:47:23;3.25;;;1.50;;
14933;SDS011;7560;51.364;12.384;2023-07-13T18:52:26;3.53;;;1.50;;
14933;SDS011;7560;51.364;12.384;2023-07-13T18:57:28;6.55;;;1.90;;
14933;SDS011;7560;51.364;12.384;2023-07-13T19:02:29;5.25;;;2.05;;
14933;SDS011;7560;51.364;12.384;2023-07-13T19:07:32;4.68;;;2.38;;
14933;SDS011;7560;51.364;12.384;2023-07-13T19:12:34;4.78;;;1.70;;
14933;SDS011;7560;51.364;12.384;2023-07-13T19:17:36;4.63;;;2.17;;
14933;SDS011;7560;51.364;12.384;2023-07-13T19:22:39;3.05;;;1.58;;
14933;SDS011;7560;51.364;12.384;2023-07-13T19:27:42;3.20;;;1.88;;
14933;SDS011;7560;51.364;12.384;2023-07-13T19:32:44;4.82;;;2.05;;
14933;SDS011;7560;51.364;12.384;2023-07-13T19:37:47;3.08;;;2.05;;
14933;SDS011;7560;51.364;12.384;2023-07-13T19:42:49;7.07;;;2.78;;
14933;SDS011;7560;51.364;12.384;2023-07-13T19:47:51;5.13;;;2.10;;
14933;SDS011;7560;51.364;12.384;2023-07-13T19:52:53;5.97;;;2.30;;
14933;SDS011;7560;51.364;12.384;2023-07-13T19:57:58;3.45;;;1.80;;
14933;SDS011;7560;51.364;12.384;2023-07-13T20:03:00;2.22;;;1.88;;
14933;SDS011;7560;51.364;12.384;2023-07-13T20:08:04;11.00;;;4.38;;
14933;SDS011;7560;51.364;12.384;2023-07-13T20:13:13;3.22;;;2.15;;
14933;SDS011;7560;51.364;12.384;2023-07-13T20:18:16;4.40;;;2.33;;
14933;SDS011;7560;51.364;12.384;2023-07-13T20:23:20;4.53;;;2.08;;
14933;SDS011;7560;51.364;12.384;2023-07-13T20:28:27;4.00;;;1.92;;
14933;SDS011;7560;51.364;12.384;2023-07-13T20:33:29;5.40;;;2.10;;
14933;SDS011;7560;51.364;12.384;2023-07-13T20:38:31;3.42;;;1.77;;
14933;SDS011;7560;51.364;12.384;2023-07-13T20:43:34;2.72;;;1.80;;
14933;SDS011;7560;51.364;12.384;2023-07-13T20:48:38;2.22;;;1.90;;
14933;SDS011;7560;51.364;12.384;2023-07-13T20:53:45;3.63;;;2.22;;
14933;SDS011;7560;51.364;12.384;2023-07-13T20:58:47;2.42;;;1.88;;
14933;SDS011;7560;51.364;12.384;2023-07-13T21:03:49;4.90;;;2.00;;
14933;SDS011;7560;51.364;12.384;2023-07-13T21:08:54;3.83;;;2.13;;
14933;SDS011;7560;51.364;12.384;2023-07-13T21:13:56;5.20;;;2.20;;
14933;SDS011;7560;51.364;12.384;2023-07-13T21:18:58;2.90;;;1.95;;
14933;SDS011;7560;51.364;12.384;2023-07-13T21:24:00;2.28;;;2.08;;
14933;SDS011;7560;51.364;12.384;2023-07-13T21:29:01;3.03;;;2.00;;
14933;SDS011;7560;51.364;12.384;2023-07-13T21:34:07;2.65;;;1.90;;
14933;SDS011;7560;51.364;12.384;2023-07-13T21:39:16;3.20;;;2.08;;
14933;SDS011;7560;51.364;12.384;2023-07-13T21:44:24;3.35;;;2.25;;
14933;SDS011;7560;51.364;12.384;2023-07-13T21:49:27;5.10;;;2.17;;
14933;SDS011;7560;51.364;12.384;2023-07-13T21:54:29;3.40;;;1.88;;
14933;SDS011;7560;51.364;12.384;2023-07-13T21:59:31;3.40;;;2.10;;
14933;SDS011;7560;51.364;12.384;2023-07-13T22:04:33;4.05;;;2.30;;
14933;SDS011;7560;51.364;12.384;2023-07-13T22:09:35;6.88;;;2.05;;
14933;SDS011;7560;51.364;12.384;2023-07-13T22:14:37;2.65;;;1.98;;
14933;SDS011;7560;51.364;12.384;2023-07-13T22:19:38;3.60;;;2.00;;
14933;SDS011;7560;51.364;12.384;2023-07-13T22:24:40;3.47;;;2.47;;
14933;SDS011;7560;51.364;12.384;2023-07-13T22:29:42;5.45;;;2.47;;
14933;SDS011;7560;51.364;12.384;2023-07-13T22:34:43;3.90;;;1.90;;
14933;SDS011;7560;51.364;12.384;2023-07-13T22:39:45;3.35;;;2.00;;
14933;SDS011;7560;51.364;12.384;2023-07-13T22:44:47;3.47;;;2.30;;
14933;SDS011;7560;51.364;12.384;2023-07-13T22:49:49;4.38;;;2.50;;
14933;SDS011;7560;51.364;12.384;2023-07-13T22:54:50;5.18;;;2.40;;
14933;SDS011;7560;51.364;12.384;2023-07-13T22:59:52;5.80;;;2.50;;
14933;SDS011;7560;51.364;12.384;2023-07-13T23:04:54;2.92;;;2.45;;
14933;SDS011;7560;51.364;12.384;2023-07-13T23:09:57;3.28;;;2.50;;
14933;SDS011;7560;51.364;12.384;2023-07-13T23:15:12;3.42;;;2.72;;
14933;SDS011;7560;51.364;12.384;2023-07-13T23:20:22;3.97;;;2.72;;
14933;SDS011;7560;51.364;12.384;2023-07-13T23:25:31;4.20;;;2.58;;
14933;SDS011;7560;51.364;12.384;2023-07-13T23:30:34;6.15;;;2.45;;
14933;SDS011;7560;51.364;12.384;2023-07-13T23:35:36;5.25;;;2.72;;
14933;SDS011;7560;51.364;12.384;2023-07-13T23:40:38;2.80;;;2.50;;
14933;SDS011;7560;51.364;12.384;2023-07-13T23:45:40;2.95;;;2.42;;
14933;SDS011;7560;51.364;12.384;2023-07-13T23:50:43;4.13;;;2.67;;
14933;SDS011;7560;51.364;12.384;2023-07-13T23:55:45;6.03;;;3.08;;
